Silverton, Colorado
Current Conditions -  °F | °C
As of 6:35 AM on Sunday 23 Nov 2014 (Local Time) from KTEX Reporting Station
Light Snow Light Snow  
Wind Chill: 14°   Ceiling: 1800
Heat Index: 24°   Visibility: 5mi
Dew Point: 20°   Wind: 9mph
Humidity: 87%   Direction: 290°WNW
Pressure: 29.86"   Gusts: 24mph
Location:  37.81°N, 107.66°W
Report Text: KTEX 231335Z AUTO 29008G21KT 5SM -SN SCT009 BKN018 OVC035 M05/M06 A2986 RMK AO2 T10471065
Loading
Personal Weather Stations






























Interactive Weather Map New forecast layout! Learn more

10-Day Weather Forecast

Advertisements
Track Severe Weather on mobile